Aérodrome :
LOGIN :

S'inscrire | Disclaimer

   EN    FR    IT 

 










Légende :    VFR   VFR Marginal   IFR   IFR Intensif   IFR Très Intensif
Visi : 
Plafond : 
>= 8 km
>= 3000ft
5 à 8 km
1000 à 3000 ft
1500m à 5 km
500 à 1000 ft
800 à 1500m
200 à 500 ft
< 800m
< 200 ft
Symboles :   Orages  Brouillard  Fortes neiges  Fortes précipitations  Vent > 20 kt
SIGMETs :   Divers  Orages  Givrage  Turbulence  Onde Orograph.  Cendres Volcan.







- Altitude de l'aérodrome : 779 ft
- Code IATA : CMF
- Voir les cartes d'approche


LFLB - Chambery / Aix-Les-Bains

DERNIER METAR :
  • 260900Z AUTO 03010KT 9999 FEW038 BKN060 16/07 Q1020 NOSIG

METARs EXPIRÉS :
  • 260830Z AUTO 02011KT 9999 BKN062 16/07 Q1020 NOSIG
  • 260800Z AUTO 02010KT 9999 BKN062 15/07 Q1020 NOSIG
  • 260730Z AUTO 03010KT 9999 SCT062 15/08 Q1020 NOSIG
  • 260700Z AUTO 04010KT 9999 BKN064 15/07 Q1020 NOSIG
  • 260630Z AUTO 01010KT 9999 SCT060 SCT072 16/05 Q1020 NOSIG

TAF TAF LFLB
Valide du 26 à 06h jusqu'au 27 à 06h UTC


260500Z 2606/2706 36010KT 9999 BKN056
Pas de NOTAMs connus pour ce terrain.



MET'MAP, la Météo Aéronautique d'un coup d'oeil ! - Copyright ORBIFLY Décembre 2007 - Disclaimer

ORBIFLY MET'MAP TEAM :

Programmation & Développement : Alexandra Zaïnal
Conception & Développement : Baudouin d'Aumeries
Co-Programmation & Développement : Marc-Olivier Méhu
Soutien technique & logistique : Manuel Goepfert

Contact : metmap@orbifly.com




SOURCES & CREDITS :

   NOAA